createdAt,value
2019-05-02T00:00:32.921Z,12.44
2019-05-02T00:01:32.936Z,12.47
2019-05-02T00:02:32.983Z,12.29
2019-05-02T00:03:36.018Z,12.30
2019-05-02T00:04:33.009Z,12.23
2019-05-02T00:05:33.278Z,12.40
2019-05-02T00:06:33.065Z,12.25
2019-05-02T00:07:33.083Z,12.15
2019-05-02T00:08:34.287Z,12.17
2019-05-02T00:09:33.566Z,12.29
2019-05-02T00:10:33.160Z,12.10
2019-05-02T00:11:33.175Z,12.15
2019-05-02T00:12:33.195Z,12.28
2019-05-02T00:13:33.223Z,12.23
2019-05-02T00:14:33.257Z,12.37
2019-05-02T00:15:38.302Z,12.47
2019-05-02T00:16:33.293Z,12.44
2019-05-02T00:17:33.319Z,12.25
2019-05-02T00:18:37.254Z,12.44
2019-05-02T00:19:33.374Z,12.58
2019-05-02T00:20:33.417Z,12.65
2019-05-02T00:21:38.198Z,12.50
2019-05-02T00:22:33.439Z,12.44
2019-05-02T00:23:33.461Z,12.50
2019-05-02T00:24:33.988Z,12.25
2019-05-02T00:25:33.513Z,12.15
2019-05-02T00:26:33.533Z,12.26
2019-05-02T00:27:37.686Z,12.35
2019-05-02T00:28:33.585Z,12.11
2019-05-02T00:29:33.605Z,12.11
2019-05-02T00:30:34.571Z,12.11
2019-05-02T00:31:33.655Z,12.05
2019-05-02T00:32:33.689Z,12.03
2019-05-02T00:33:34.432Z,11.77
2019-05-02T00:34:33.735Z,11.96
2019-05-02T00:35:33.749Z,12.10
2019-05-02T00:36:33.779Z,12.08
2019-05-02T00:37:33.798Z,12.05
2019-05-02T00:38:38.620Z,11.93
2019-05-02T00:39:33.849Z,12.07
2019-05-02T00:40:33.875Z,12.02
2019-05-02T00:41:38.455Z,12.08
2019-05-02T00:42:33.921Z,11.93
2019-05-02T00:43:36.233Z,11.88
2019-05-02T00:44:33.964Z,11.93
2019-05-02T00:45:33.995Z,11.91
2019-05-02T00:46:34.991Z,11.88
2019-05-02T00:47:34.041Z,11.86
2019-05-02T00:48:34.067Z,11.89
2019-05-02T00:49:35.524Z,11.91
2019-05-02T00:50:34.108Z,12.11
2019-05-02T00:51:34.139Z,11.95
2019-05-02T00:52:36.721Z,11.78
2019-05-02T00:53:34.181Z,11.88
2019-05-02T00:54:34.207Z,11.80
2019-05-02T00:55:35.567Z,11.91
2019-05-02T00:56:34.254Z,11.85
2019-05-02T00:57:34.280Z,11.56
2019-05-02T00:58:34.304Z,11.67
2019-05-02T00:59:37.817Z,11.63
2019-05-02T01:00:34.348Z,11.91
2019-05-02T01:01:34.388Z,11.74
2019-05-02T01:02:35.850Z,11.77
2019-05-02T01:03:34.424Z,11.95
2019-05-02T01:04:34.449Z,11.73
2019-05-02T01:05:38.589Z,11.81
2019-05-02T01:06:34.496Z,11.85
2019-05-02T01:07:34.520Z,11.89
2019-05-02T01:08:35.728Z,12.07
2019-05-02T01:09:34.571Z,12.03
2019-05-02T01:10:34.587Z,12.02
2019-05-02T01:11:34.610Z,11.86
2019-05-02T01:12:34.640Z,12.05
2019-05-02T01:13:34.662Z,12.12
2019-05-02T01:14:34.687Z,11.97
2019-05-02T01:15:38.936Z,11.96
2019-05-02T01:16:34.728Z,11.97
2019-05-02T01:17:34.754Z,12.00
2019-05-02T01:18:37.287Z,11.91
2019-05-02T01:19:34.800Z,11.86
2019-05-02T01:20:34.826Z,12.05
2019-05-02T01:21:38.908Z,12.11
2019-05-02T01:22:34.876Z,11.89
2019-05-02T01:23:34.910Z,12.02
2019-05-02T01:24:39.611Z,11.86
2019-05-02T01:25:34.946Z,11.74
2019-05-02T01:26:34.970Z,11.78
2019-05-02T01:27:36.149Z,11.81
2019-05-02T01:28:35.026Z,11.91
2019-05-02T01:29:35.046Z,11.63
2019-05-02T01:30:37.204Z,11.91
2019-05-02T01:31:35.093Z,11.83
2019-05-02T01:32:35.116Z,11.73
2019-05-02T01:33:36.840Z,11.89
2019-05-02T01:34:35.168Z,11.89
2019-05-02T01:35:35.188Z,11.68
2019-05-02T01:36:36.744Z,11.73
2019-05-02T01:37:35.229Z,11.59
2019-05-02T01:38:35.264Z,11.77
2019-05-02T01:39:37.941Z,11.63
2019-05-02T01:40:35.303Z,11.44
2019-05-02T01:41:35.325Z,11.60
2019-05-02T01:42:39.965Z,11.65
2019-05-02T01:43:35.368Z,11.63
2019-05-02T01:44:36.230Z,11.76
2019-05-02T01:45:35.421Z,11.96
2019-05-02T01:46:35.453Z,11.89
2019-05-02T01:47:35.890Z,11.85
2019-05-02T01:48:35.490Z,11.93
2019-05-02T01:49:35.520Z,11.86
2019-05-02T01:50:35.537Z,11.93
2019-05-02T01:51:36.899Z,11.99
2019-05-02T01:52:35.585Z,11.89
2019-05-02T01:53:35.830Z,11.80
2019-05-02T01:54:35.633Z,11.74
2019-05-02T01:55:35.657Z,11.55
2019-05-02T01:56:35.684Z,11.60
2019-05-02T01:57:39.976Z,11.53
2019-05-02T01:58:35.727Z,11.52
2019-05-02T01:59:35.755Z,11.48
2019-05-02T02:00:35.781Z,11.41
2019-05-02T02:01:35.803Z,11.60
2019-05-02T02:02:35.863Z,11.59
2019-05-02T02:03:40.526Z,11.78
2019-05-02T02:04:35.875Z,11.73
2019-05-02T02:05:35.895Z,11.65
2019-05-02T02:06:38.774Z,11.91
2019-05-02T02:07:35.945Z,11.78
2019-05-02T02:08:35.967Z,11.65
2019-05-02T02:09:38.945Z,11.52
2019-05-02T02:10:36.019Z,11.52
2019-05-02T02:11:36.044Z,11.52
2019-05-02T02:12:36.059Z,11.34
2019-05-02T02:13:36.869Z,11.48
2019-05-02T02:14:36.110Z,11.55
2019-05-02T02:15:36.127Z,11.62
2019-05-02T02:16:39.326Z,11.65
2019-05-02T02:17:36.179Z,11.65
2019-05-02T02:18:36.205Z,11.85
2019-05-02T02:19:39.118Z,11.91
2019-05-02T02:20:36.246Z,12.05
2019-05-02T02:21:36.285Z,11.88
2019-05-02T02:22:39.081Z,11.86
2019-05-02T02:23:36.318Z,11.91
2019-05-02T02:24:38.403Z,11.53
2019-05-02T02:25:37.490Z,11.43
2019-05-02T02:26:36.387Z,11.44
2019-05-02T02:27:36.414Z,11.33
2019-05-02T02:28:36.441Z,11.41
2019-05-02T02:29:39.054Z,11.37
2019-05-02T02:30:36.486Z,11.26
2019-05-02T02:31:39.589Z,11.30
2019-05-02T02:32:36.534Z,11.15
2019-05-02T02:33:41.140Z,11.25
2019-05-02T02:34:36.587Z,11.37
2019-05-02T02:35:36.607Z,11.27
2019-05-02T02:36:36.635Z,11.37
2019-05-02T02:37:36.648Z,11.30
2019-05-02T02:38:36.672Z,11.48
2019-05-02T02:39:36.701Z,11.51
2019-05-02T02:40:36.748Z,11.51
2019-05-02T02:41:36.744Z,11.40
2019-05-02T02:42:36.778Z,11.53
2019-05-02T02:43:36.791Z,11.62
2019-05-02T02:44:39.902Z,11.51
2019-05-02T02:45:36.842Z,11.63
2019-05-02T02:46:38.086Z,11.63
2019-05-02T02:47:36.886Z,11.51
2019-05-02T02:48:40.756Z,11.70
2019-05-02T02:49:36.939Z,11.86
2019-05-02T02:50:42.843Z,11.76
2019-05-02T02:51:36.979Z,11.56
2019-05-02T02:52:37.717Z,11.62
2019-05-02T02:53:37.028Z,11.77
2019-05-02T02:54:43.079Z,11.62
2019-05-02T02:55:37.076Z,11.55
2019-05-02T02:56:40.427Z,11.53
2019-05-02T02:57:37.117Z,11.27
2019-05-02T02:58:45.691Z,11.26
2019-05-02T02:59:37.179Z,11.27
2019-05-02T03:00:41.440Z,11.30
2019-05-02T03:01:37.221Z,11.34
2019-05-02T03:02:47.489Z,11.48
2019-05-02T03:03:37.262Z,11.71
2019-05-02T03:04:44.170Z,11.31
2019-05-02T03:05:37.318Z,11.38
2019-05-02T03:06:38.294Z,11.34
2019-05-02T03:07:37.359Z,11.31
2019-05-02T03:08:45.059Z,11.40
2019-05-02T03:09:37.414Z,11.52
2019-05-02T03:10:39.882Z,11.65
2019-05-02T03:11:37.455Z,11.71
2019-05-02T03:12:41.465Z,11.77
2019-05-02T03:13:51.387Z,11.52
2019-05-02T03:14:41.017Z,11.58
2019-05-02T03:15:37.557Z,11.83
2019-05-02T03:16:45.969Z,11.99
2019-05-02T03:17:37.594Z,11.86
2019-05-02T03:18:40.451Z,11.91
2019-05-02T03:19:37.641Z,11.83
2019-05-02T03:20:40.709Z,11.81
2019-05-02T03:21:37.697Z,11.62
2019-05-02T03:22:41.872Z,11.80
2019-05-02T03:23:37.734Z,11.86
2019-05-02T03:24:43.882Z,11.78
2019-05-02T03:25:49.731Z,11.62
2019-05-02T03:26:37.810Z,11.52
2019-05-02T03:27:40.281Z,11.44
2019-05-02T03:28:37.853Z,11.30
2019-05-02T03:29:44.405Z,11.44
2019-05-02T03:30:38.241Z,11.43
2019-05-02T03:31:37.927Z,11.31
2019-05-02T03:32:37.986Z,11.27
2019-05-02T03:33:52.043Z,11.40
2019-05-02T03:34:47.278Z,11.58
2019-05-02T03:35:42.834Z,11.27
2019-05-02T03:36:38.041Z,11.33
2019-05-02T03:37:38.065Z,11.33
2019-05-02T03:38:38.091Z,11.13
2019-05-02T03:39:38.111Z,11.26
2019-05-02T03:40:39.625Z,11.25
2019-05-02T03:41:38.163Z,11.19
2019-05-02T03:42:44.831Z,11.19
2019-05-02T03:43:38.210Z,11.15
2019-05-02T03:44:38.227Z,11.26
2019-05-02T03:45:40.249Z,11.08
2019-05-02T03:46:38.273Z,11.08
2019-05-02T03:47:43.462Z,11.16
2019-05-02T03:48:38.320Z,11.07
2019-05-02T03:49:41.087Z,11.15
2019-05-02T03:50:38.376Z,11.31
2019-05-02T03:51:38.388Z,11.10
2019-05-02T03:52:43.928Z,11.35
2019-05-02T03:53:38.436Z,11.19
2019-05-02T03:54:48.346Z,11.26
2019-05-02T03:55:38.485Z,11.16
2019-05-02T03:56:38.510Z,11.13
2019-05-02T03:57:41.906Z,11.15
2019-05-02T03:58:38.554Z,11.12
2019-05-02T03:59:41.625Z,11.12
2019-05-02T04:00:38.723Z,11.15
2019-05-02T04:01:41.471Z,11.27
2019-05-02T04:02:38.652Z,11.22
2019-05-02T04:03:40.687Z,11.34
2019-05-02T04:04:38.735Z,11.25
2019-05-02T04:05:40.596Z,11.27
2019-05-02T04:06:38.740Z,11.16
2019-05-02T04:07:40.666Z,11.15
2019-05-02T04:08:38.836Z,11.20
2019-05-02T04:09:42.215Z,11.18
2019-05-02T04:10:38.836Z,11.30
2019-05-02T04:11:40.806Z,11.18
2019-05-02T04:12:38.879Z,11.22
2019-05-02T04:13:38.906Z,11.26
2019-05-02T04:14:39.529Z,11.38
2019-05-02T04:15:38.952Z,11.40
2019-05-02T04:16:38.976Z,11.35
2019-05-02T04:17:39.000Z,11.25
2019-05-02T04:18:39.040Z,11.35
2019-05-02T04:19:39.040Z,11.33
2019-05-02T04:20:43.523Z,11.23
2019-05-02T04:21:39.090Z,11.45
2019-05-02T04:22:42.982Z,11.43
2019-05-02T04:23:39.134Z,11.43
2019-05-02T04:24:39.160Z,11.23
2019-05-02T04:25:39.186Z,11.25
2019-05-02T04:26:39.273Z,11.20
2019-05-02T04:27:39.232Z,11.37
2019-05-02T04:28:39.255Z,11.34
2019-05-02T04:29:39.282Z,11.31
2019-05-02T04:30:39.327Z,11.26
2019-05-02T04:31:39.332Z,11.27
2019-05-02T04:32:42.827Z,11.23
2019-05-02T04:33:39.373Z,11.33
2019-05-02T04:34:39.406Z,11.33
2019-05-02T04:35:39.414Z,11.25
2019-05-02T04:36:39.437Z,11.27
2019-05-02T04:37:41.061Z,11.25
2019-05-02T04:38:46.876Z,11.23
2019-05-02T04:39:39.511Z,11.23
2019-05-02T04:40:41.767Z,11.13
2019-05-02T04:41:42.532Z,11.22
2019-05-02T04:42:39.585Z,11.23
2019-05-02T04:43:47.289Z,11.34
2019-05-02T04:44:47.816Z,11.05
2019-05-02T04:45:53.003Z,11.23
2019-05-02T04:46:39.672Z,11.25
2019-05-02T04:47:42.563Z,11.30
2019-05-02T04:48:44.386Z,11.30
2019-05-02T04:49:39.767Z,11.31
2019-05-02T04:50:39.778Z,11.26
2019-05-02T04:51:39.828Z,11.31
2019-05-02T04:52:48.236Z,11.26
2019-05-02T04:53:45.065Z,11.40
2019-05-02T04:54:39.858Z,11.33
2019-05-02T04:55:39.882Z,11.20
2019-05-02T04:56:49.745Z,11.34
2019-05-02T04:57:47.346Z,11.35
2019-05-02T04:58:40.780Z,11.19
2019-05-02T04:59:39.987Z,11.22
2019-05-02T05:00:45.145Z,11.26
2019-05-02T05:01:49.123Z,11.27
2019-05-02T05:02:40.265Z,11.34
2019-05-02T05:03:40.069Z,11.31
2019-05-02T05:04:46.066Z,11.25
2019-05-02T05:05:40.418Z,11.23
2019-05-02T05:06:40.913Z,11.26
2019-05-02T05:07:45.777Z,11.22
2019-05-02T05:08:41.773Z,11.41
2019-05-02T05:09:40.511Z,11.48
2019-05-02T05:10:41.400Z,11.31
2019-05-02T05:11:40.258Z,11.27
2019-05-02T05:12:41.781Z,11.44
2019-05-02T05:13:40.302Z,11.34
2019-05-02T05:14:43.169Z,11.13
2019-05-02T05:15:48.514Z,11.04
2019-05-02T05:16:40.372Z,11.12
2019-05-02T05:17:40.403Z,11.13
2019-05-02T05:18:43.918Z,11.22
2019-05-02T05:19:40.445Z,11.16
2019-05-02T05:20:40.619Z,11.16
2019-05-02T05:21:40.489Z,11.08
2019-05-02T05:22:44.257Z,11.35
2019-05-02T05:23:40.547Z,11.40
2019-05-02T05:24:42.316Z,11.27
2019-05-02T05:25:40.583Z,11.33
2019-05-02T05:26:42.954Z,11.33
2019-05-02T05:27:40.626Z,11.30
2019-05-02T05:28:44.417Z,11.08
2019-05-02T05:29:40.673Z,11.08
2019-05-02T05:30:45.343Z,11.05
2019-05-02T05:31:40.728Z,11.01
2019-05-02T05:32:40.747Z,10.98
2019-05-02T05:33:40.782Z,11.18
2019-05-02T05:34:40.794Z,11.10
2019-05-02T05:35:43.351Z,11.07
2019-05-02T05:36:40.842Z,11.12
2019-05-02T05:37:43.153Z,10.98
2019-05-02T05:38:40.883Z,10.89
2019-05-02T05:39:43.048Z,10.98
2019-05-02T05:40:40.951Z,10.94
2019-05-02T05:41:42.761Z,11.13
2019-05-02T05:42:40.971Z,11.15
2019-05-02T05:43:44.784Z,11.19
2019-05-02T05:44:41.021Z,10.84
2019-05-02T05:45:51.106Z,10.97
2019-05-02T05:46:42.626Z,10.98
2019-05-02T05:47:41.092Z,11.10
2019-05-02T05:48:41.113Z,10.90
2019-05-02T05:49:41.142Z,10.98
2019-05-02T05:50:41.586Z,11.00
2019-05-02T05:51:41.181Z,10.97
2019-05-02T05:52:42.570Z,11.01
2019-05-02T05:53:41.231Z,10.95
2019-05-02T05:54:42.110Z,11.00
2019-05-02T05:55:41.282Z,10.94
2019-05-02T05:56:43.174Z,11.00
2019-05-02T05:57:41.322Z,10.98
2019-05-02T05:58:48.075Z,11.20
2019-05-02T05:59:41.376Z,11.22
2019-05-02T06:00:45.820Z,11.20
2019-05-02T06:01:41.435Z,11.12
2019-05-02T06:02:52.731Z,11.13
2019-05-02T06:03:44.613Z,11.18
2019-05-02T06:04:41.491Z,11.31
2019-05-02T06:05:42.284Z,11.27
2019-05-02T06:06:41.532Z,11.27
2019-05-02T06:07:44.802Z,11.13
2019-05-02T06:08:41.583Z,11.16
2019-05-02T06:09:41.595Z,11.26
2019-05-02T06:10:43.993Z,11.27
2019-05-02T06:11:41.645Z,11.26
2019-05-02T06:12:41.667Z,11.31
2019-05-02T06:13:42.945Z,11.31
2019-05-02T06:14:41.722Z,11.22
2019-05-02T06:15:41.768Z,11.31
2019-05-02T06:16:46.611Z,11.30
2019-05-02T06:17:41.786Z,11.31
2019-05-02T06:18:43.590Z,11.33
2019-05-02T06:19:41.831Z,11.44
2019-05-02T06:20:41.857Z,11.30
2019-05-02T06:21:45.158Z,11.18
2019-05-02T06:22:41.901Z,11.15
2019-05-02T06:23:41.919Z,11.22
2019-05-02T06:24:46.164Z,11.25
2019-05-02T06:25:42.750Z,11.31
2019-05-02T06:26:44.698Z,11.27
2019-05-02T06:27:42.018Z,11.27
2019-05-02T06:28:43.233Z,11.23
2019-05-02T06:29:42.065Z,11.23
2019-05-02T06:30:42.103Z,11.22
2019-05-02T06:31:43.157Z,11.20
2019-05-02T06:32:42.133Z,11.33
2019-05-02T06:33:42.174Z,11.23
2019-05-02T06:34:46.579Z,11.26
2019-05-02T06:35:42.216Z,11.27
2019-05-02T06:36:42.240Z,11.26
2019-05-02T06:37:45.395Z,11.38
2019-05-02T06:38:42.280Z,11.41
2019-05-02T06:39:42.291Z,11.27
2019-05-02T06:40:44.881Z,11.44
2019-05-02T06:41:42.338Z,11.41
2019-05-02T06:42:42.364Z,11.44
2019-05-02T06:43:46.516Z,11.26
2019-05-02T06:44:42.410Z,11.27
2019-05-02T06:45:42.473Z,11.31
2019-05-02T06:46:42.462Z,11.31
2019-05-02T06:47:43.648Z,11.22
2019-05-02T06:48:42.515Z,11.33
2019-05-02T06:49:42.526Z,11.38
2019-05-02T06:50:42.558Z,11.40
2019-05-02T06:51:42.573Z,11.31
2019-05-02T06:52:42.599Z,11.33
2019-05-02T06:53:46.982Z,11.45
2019-05-02T06:54:42.636Z,11.41
2019-05-02T06:55:42.666Z,11.43
2019-05-02T06:56:43.055Z,11.52
2019-05-02T06:57:42.716Z,11.41
2019-05-02T06:58:43.366Z,11.52
2019-05-02T06:59:42.762Z,11.63
2019-05-02T07:00:56.382Z,11.62
2019-05-02T07:01:42.802Z,11.60
2019-05-02T07:02:42.829Z,11.78
2019-05-02T07:03:46.314Z,11.68
2019-05-02T07:04:42.876Z,11.63
2019-05-02T07:05:42.903Z,11.65
2019-05-02T07:06:57.783Z,11.67
2019-05-02T07:07:42.956Z,11.62
2019-05-02T07:08:42.986Z,11.83
2019-05-02T07:09:43.182Z,11.77
2019-05-02T07:10:44.971Z,11.77
2019-05-02T07:11:56.383Z,11.83
2019-05-02T07:12:46.090Z,11.91
2019-05-02T07:13:43.844Z,11.81
2019-05-02T07:14:45.732Z,11.76
2019-05-02T07:15:43.137Z,11.77
2019-05-02T07:16:43.161Z,11.73
2019-05-02T07:17:43.186Z,11.65
2019-05-02T07:18:47.514Z,11.52
2019-05-02T07:19:43.230Z,11.53
2019-05-02T07:20:43.255Z,11.49
2019-05-02T07:21:43.275Z,11.62
2019-05-02T07:22:45.551Z,11.63
2019-05-02T07:23:43.315Z,11.59
2019-05-02T07:24:43.344Z,11.62
2019-05-02T07:25:43.897Z,11.62
2019-05-02T07:26:43.395Z,11.81
2019-05-02T07:27:43.408Z,11.85
2019-05-02T07:28:45.689Z,11.76
2019-05-02T07:29:43.457Z,11.85
2019-05-02T07:30:43.489Z,11.76
2019-05-02T07:31:47.706Z,11.76
2019-05-02T07:32:43.529Z,11.65
2019-05-02T07:33:43.555Z,11.65
2019-05-02T07:34:44.206Z,11.63
2019-05-02T07:35:43.595Z,11.63
2019-05-02T07:36:43.631Z,11.74
2019-05-02T07:37:44.003Z,11.73
2019-05-02T07:38:43.665Z,11.81
2019-05-02T07:39:43.691Z,11.78
2019-05-02T07:40:43.714Z,11.76
2019-05-02T07:41:43.747Z,11.73
2019-05-02T07:42:43.762Z,11.85
2019-05-02T07:43:43.785Z,11.85
2019-05-02T07:44:43.813Z,11.76
2019-05-02T07:45:45.316Z,11.74
2019-05-02T07:46:51.699Z,11.71
2019-05-02T07:47:43.878Z,11.76
2019-05-02T07:48:48.490Z,11.68
2019-05-02T07:49:43.937Z,11.63
2019-05-02T07:50:46.596Z,11.91
2019-05-02T07:51:43.967Z,11.71
2019-05-02T07:52:43.992Z,11.59
2019-05-02T07:53:44.607Z,11.63
2019-05-02T07:54:44.041Z,11.60
2019-05-02T07:55:44.075Z,11.70
2019-05-02T07:56:44.099Z,11.62
2019-05-02T07:57:44.109Z,11.60
2019-05-02T07:58:46.822Z,11.62
2019-05-02T07:59:44.153Z,11.73
2019-05-02T08:00:44.185Z,11.78
2019-05-02T08:01:44.941Z,11.74
2019-05-02T08:02:44.229Z,11.73
2019-05-02T08:03:44.254Z,11.85
2019-05-02T08:04:44.923Z,11.65
2019-05-02T08:05:44.299Z,11.91
2019-05-02T08:06:46.102Z,11.89
2019-05-02T08:07:44.353Z,11.70
2019-05-02T08:08:44.371Z,11.86
2019-05-02T08:09:45.318Z,11.85
2019-05-02T08:10:44.409Z,11.77
2019-05-02T08:11:44.436Z,11.85
2019-05-02T08:12:44.463Z,11.93
2019-05-02T08:13:44.497Z,12.11
2019-05-02T08:14:44.510Z,12.07
2019-05-02T08:15:45.750Z,12.08
2019-05-02T08:16:44.556Z,12.03
2019-05-02T08:17:53.303Z,11.99
2019-05-02T08:18:44.602Z,11.99
2019-05-02T08:19:44.628Z,12.05
2019-05-02T08:20:44.648Z,12.02
2019-05-02T08:21:44.668Z,12.07
2019-05-02T08:22:49.041Z,12.14
2019-05-02T08:23:44.741Z,12.02
2019-05-02T08:24:44.736Z,12.03
2019-05-02T08:25:45.391Z,12.03
2019-05-02T08:26:44.800Z,12.14
2019-05-02T08:27:44.816Z,12.11
2019-05-02T08:28:46.996Z,12.10
2019-05-02T08:29:44.858Z,11.96
2019-05-02T08:30:44.884Z,12.02
2019-05-02T08:31:44.905Z,12.07
2019-05-02T08:32:44.938Z,12.17
2019-05-02T08:33:44.954Z,12.14
2019-05-02T08:34:46.246Z,12.03
2019-05-02T08:35:44.996Z,12.07
2019-05-02T08:36:45.117Z,12.10
2019-05-02T08:37:45.046Z,11.99
2019-05-02T08:38:48.948Z,11.97
2019-05-02T08:39:45.091Z,11.91
2019-05-02T08:40:47.717Z,11.91
2019-05-02T08:41:45.133Z,11.86
2019-05-02T08:42:45.163Z,11.96
2019-05-02T08:43:46.232Z,11.97
2019-05-02T08:44:51.257Z,12.15
2019-05-02T08:45:45.249Z,12.12
2019-05-02T08:46:46.166Z,12.07
2019-05-02T08:47:45.283Z,12.03
2019-05-02T08:48:45.298Z,12.11
2019-05-02T08:49:49.420Z,12.10
2019-05-02T08:50:45.353Z,12.20
2019-05-02T08:51:45.389Z,12.17
2019-05-02T08:52:47.898Z,12.12
2019-05-02T08:53:45.418Z,12.28
2019-05-02T08:54:45.446Z,12.40
2019-05-02T08:55:46.542Z,12.36
2019-05-02T08:56:45.493Z,12.29
2019-05-02T08:57:45.518Z,12.21
2019-05-02T08:58:49.750Z,12.12
2019-05-02T08:59:45.559Z,12.28
2019-05-02T09:00:47.185Z,12.21
2019-05-02T09:01:49.395Z,12.26
2019-05-02T09:02:45.629Z,12.25
2019-05-02T09:03:55.469Z,12.28
2019-05-02T09:04:57.337Z,12.29
2019-05-02T09:05:46.232Z,12.28
2019-05-02T09:06:46.112Z,12.39
2019-05-02T09:07:45.744Z,12.35
2019-05-02T09:08:46.081Z,12.39
2019-05-02T09:09:45.790Z,12.43
2019-05-02T09:10:45.827Z,12.53
2019-05-02T09:11:57.575Z,12.43
2019-05-02T09:12:45.875Z,12.43
2019-05-02T09:13:46.141Z,12.50
2019-05-02T09:14:45.911Z,12.43
2019-05-02T09:15:51.068Z,12.61
2019-05-02T09:16:45.965Z,12.48
2019-05-02T09:17:54.895Z,12.44
2019-05-02T09:18:50.997Z,12.48
2019-05-02T09:19:58.847Z,12.45
2019-05-02T09:20:46.900Z,12.55
2019-05-02T09:21:46.075Z,12.44
2019-05-02T09:22:46.585Z,12.58
2019-05-02T09:23:46.129Z,12.61
2019-05-02T09:24:46.147Z,12.47
2019-05-02T09:25:46.171Z,12.51
2019-05-02T09:26:46.189Z,12.55
2019-05-02T09:27:46.218Z,12.48
2019-05-02T09:28:46.241Z,12.55
2019-05-02T09:29:46.270Z,12.58
2019-05-02T09:30:46.869Z,12.53
2019-05-02T09:31:46.325Z,12.62
2019-05-02T09:32:46.337Z,12.63
2019-05-02T09:33:46.980Z,12.70
2019-05-02T09:34:46.383Z,12.76
2019-05-02T09:35:46.415Z,12.78
2019-05-02T09:36:46.436Z,12.84
2019-05-02T09:37:46.461Z,12.78
2019-05-02T09:38:48.823Z,12.78
2019-05-02T09:39:46.505Z,12.81
2019-05-02T09:40:47.248Z,12.93
2019-05-02T09:41:46.563Z,12.98
2019-05-02T09:42:47.671Z,12.81
2019-05-02T09:43:46.591Z,12.86
2019-05-02T09:44:47.998Z,12.81
2019-05-02T09:45:46.645Z,12.81
2019-05-02T09:46:47.497Z,12.93
2019-05-02T09:47:55.773Z,12.94
2019-05-02T09:48:46.716Z,12.90
2019-05-02T09:49:49.152Z,12.95
2019-05-02T09:50:46.763Z,12.93
2019-05-02T09:51:50.334Z,12.95
2019-05-02T09:52:46.812Z,13.11
2019-05-02T09:53:46.830Z,13.05
2019-05-02T09:54:46.862Z,13.12
2019-05-02T09:55:50.247Z,13.20
2019-05-02T09:56:46.907Z,13.09
2019-05-02T09:57:46.932Z,13.16
2019-05-02T09:58:49.317Z,13.05
2019-05-02T09:59:50.476Z,13.01
2019-05-02T10:00:47.001Z,13.05
2019-05-02T10:01:47.027Z,13.08
2019-05-02T10:02:47.040Z,13.06
2019-05-02T10:03:47.082Z,13.09
2019-05-02T10:04:47.096Z,13.08
2019-05-02T10:05:47.117Z,13.24
2019-05-02T10:06:47.147Z,13.19
2019-05-02T10:07:48.645Z,13.21
2019-05-02T10:08:47.190Z,13.24
2019-05-02T10:09:47.213Z,13.28
2019-05-02T10:10:47.326Z,13.23
2019-05-02T10:11:47.279Z,13.19
2019-05-02T10:12:47.296Z,13.20
2019-05-02T10:13:47.316Z,13.16
2019-05-02T10:14:47.333Z,13.12
2019-05-02T10:15:47.363Z,13.06
2019-05-02T10:16:47.401Z,12.95
2019-05-02T10:17:47.514Z,13.02
2019-05-02T10:18:47.446Z,13.03
2019-05-02T10:19:51.219Z,13.21
2019-05-02T10:20:47.476Z,13.19
2019-05-02T10:21:52.554Z,13.06
2019-05-02T10:22:47.535Z,13.05
2019-05-02T10:23:51.736Z,12.94
2019-05-02T10:24:47.590Z,12.90
2019-05-02T10:25:47.603Z,12.99
2019-05-02T10:26:47.628Z,13.03
2019-05-02T10:27:47.666Z,12.91
2019-05-02T10:28:50.501Z,13.08
2019-05-02T10:29:47.696Z,13.16
2019-05-02T10:30:52.725Z,13.19
2019-05-02T10:31:47.736Z,13.12
2019-05-02T10:32:55.574Z,13.11
2019-05-02T10:33:47.790Z,13.11
2019-05-02T10:34:55.296Z,13.08
2019-05-02T10:35:47.828Z,12.99
2019-05-02T10:36:54.277Z,12.94
2019-05-02T10:37:47.892Z,12.94
2019-05-02T10:38:48.954Z,12.98
2019-05-02T10:39:47.934Z,12.98
2019-05-02T10:40:48.419Z,13.20
2019-05-02T10:41:47.974Z,13.17
2019-05-02T10:42:47.996Z,13.19
2019-05-02T10:43:51.946Z,13.12
2019-05-02T10:44:48.048Z,13.06
2019-05-02T10:45:52.836Z,13.17
2019-05-02T10:46:48.096Z,13.09
2019-05-02T10:47:48.118Z,13.19
2019-05-02T10:48:48.142Z,13.16
2019-05-02T10:49:48.174Z,13.17
2019-05-02T10:50:48.190Z,13.09
2019-05-02T10:51:49.531Z,13.21
2019-05-02T10:52:48.249Z,13.21
2019-05-02T10:53:54.779Z,13.08
2019-05-02T10:54:48.286Z,13.08
2019-05-02T10:55:48.328Z,13.27
2019-05-02T10:56:48.336Z,13.09
2019-05-02T10:57:48.888Z,13.27
2019-05-02T10:58:48.382Z,13.37
2019-05-02T10:59:48.414Z,13.36
2019-05-02T11:00:48.430Z,13.37
2019-05-02T11:01:48.464Z,13.28
2019-05-02T11:02:48.477Z,13.26
2019-05-02T11:03:48.499Z,13.19
2019-05-02T11:04:48.525Z,13.11
2019-05-02T11:05:48.560Z,13.21
2019-05-02T11:06:48.568Z,13.19
2019-05-02T11:07:48.616Z,13.13
2019-05-02T11:08:48.624Z,13.09
2019-05-02T11:09:48.644Z,13.09
2019-05-02T11:10:48.671Z,13.12
2019-05-02T11:11:48.686Z,13.21
2019-05-02T11:12:48.718Z,13.08
2019-05-02T11:13:55.407Z,13.19
2019-05-02T11:14:48.776Z,13.12
2019-05-02T11:15:48.792Z,13.13
2019-05-02T11:16:48.818Z,13.09
2019-05-02T11:17:48.831Z,13.16
2019-05-02T11:18:48.864Z,13.11
2019-05-02T11:19:48.882Z,13.09
2019-05-02T11:20:48.909Z,13.16
2019-05-02T11:21:56.274Z,13.17
2019-05-02T11:22:51.917Z,13.13
2019-05-02T11:23:49.043Z,13.11
2019-05-02T11:24:48.999Z,13.16
2019-05-02T11:25:49.026Z,13.17
2019-05-02T11:26:49.048Z,13.16
2019-05-02T11:27:49.071Z,13.21
2019-05-02T11:28:49.092Z,13.19
2019-05-02T11:29:49.165Z,13.16
2019-05-02T11:30:49.164Z,13.20
2019-05-02T11:31:49.189Z,13.24
2019-05-02T11:32:49.213Z,13.13
2019-05-02T11:33:49.215Z,13.23
2019-05-02T11:34:49.234Z,13.27
2019-05-02T11:35:51.541Z,13.27
2019-05-02T11:36:49.295Z,13.39
2019-05-02T11:37:49.308Z,13.40
2019-05-02T11:38:54.863Z,13.52
2019-05-02T11:39:53.099Z,13.58
2019-05-02T11:40:49.393Z,13.42
2019-05-02T11:41:49.403Z,13.43
2019-05-02T11:42:49.443Z,13.36
2019-05-02T11:43:49.454Z,13.46
2019-05-02T11:44:49.475Z,13.40
2019-05-02T11:45:54.205Z,13.46
2019-05-02T11:46:49.525Z,13.46
2019-05-02T11:47:49.541Z,13.42
2019-05-02T11:48:56.198Z,13.54
2019-05-02T11:49:52.079Z,13.50
2019-05-02T11:50:52.111Z,13.52
2019-05-02T11:51:52.615Z,13.49
2019-05-02T11:52:49.721Z,13.47
2019-05-02T11:53:49.696Z,13.49
2019-05-02T11:54:49.713Z,13.54
2019-05-02T11:55:49.739Z,13.49
2019-05-02T11:56:51.458Z,13.58
2019-05-02T11:57:49.809Z,13.65
2019-05-02T11:58:50.307Z,13.62
2019-05-02T11:59:51.945Z,13.65
2019-05-02T12:00:49.903Z,13.67
2019-05-02T12:01:57.679Z,13.68
2019-05-02T12:02:54.202Z,13.76
2019-05-02T12:03:52.245Z,13.80
2019-05-02T12:04:54.302Z,13.76
2019-05-02T12:05:49.984Z,13.78
2019-05-02T12:06:58.935Z,13.78
2019-05-02T12:07:50.028Z,13.65
2019-05-02T12:08:52.223Z,13.67
2019-05-02T12:09:55.562Z,13.65
2019-05-02T12:10:51.929Z,13.61
2019-05-02T12:11:54.989Z,13.68
2019-05-02T12:12:50.146Z,13.64
2019-05-02T12:13:52.824Z,13.65
2019-05-02T12:14:50.194Z,13.65
2019-05-02T12:15:51.951Z,13.65
2019-05-02T12:16:50.258Z,13.73
2019-05-02T12:17:51.672Z,13.71
2019-05-02T12:18:50.291Z,13.67
2019-05-02T12:19:52.239Z,13.76
2019-05-02T12:20:51.970Z,13.78
2019-05-02T12:21:50.394Z,13.83
2019-05-02T12:22:52.652Z,13.65
2019-05-02T12:23:52.004Z,13.70
2019-05-02T12:24:51.872Z,13.65
2019-05-02T12:25:52.031Z,13.75
2019-05-02T12:26:52.678Z,13.79
2019-05-02T12:27:52.558Z,13.76
2019-05-02T12:28:52.460Z,13.86
2019-05-02T12:29:57.873Z,13.78
2019-05-02T12:30:51.912Z,13.67
2019-05-02T12:31:54.767Z,13.79
2019-05-02T12:32:52.982Z,13.82
2019-05-02T12:33:51.649Z,13.94
2019-05-02T12:34:52.486Z,13.91
2019-05-02T12:35:52.487Z,13.78
2019-05-02T12:36:52.291Z,13.75
2019-05-02T12:37:52.195Z,13.82
2019-05-02T12:38:52.651Z,13.89
2019-05-02T12:39:51.754Z,14.00
2019-05-02T12:40:52.025Z,13.97
2019-05-02T12:41:53.242Z,13.98
2019-05-02T12:42:52.556Z,14.01
2019-05-02T12:43:52.420Z,13.98
2019-05-02T12:44:50.919Z,14.01
2019-05-02T12:45:52.842Z,14.01
2019-05-02T12:46:51.797Z,14.01
2019-05-02T12:47:52.291Z,13.87
2019-05-02T12:48:51.936Z,13.79
2019-05-02T12:49:51.937Z,13.75
2019-05-02T12:50:52.794Z,13.78
2019-05-02T12:51:52.473Z,13.67
2019-05-02T12:52:52.133Z,13.78